createdAt,value
2023-03-12T17:17:00.893Z,4.48
2023-03-12T17:20:10.697Z,4.29
2023-03-12T17:23:17.257Z,4.15
2023-03-12T17:26:23.688Z,4.10
2023-03-12T17:29:30.320Z,4.23
2023-03-12T17:32:38.428Z,4.17
2023-03-12T17:35:45.464Z,4.08
2023-03-12T17:38:52.072Z,4.16
2023-03-12T17:41:58.699Z,4.33
2023-03-12T17:45:06.942Z,4.14
2023-03-12T17:48:15.060Z,3.98
2023-03-12T17:51:22.233Z,3.83
2023-03-12T17:54:28.245Z,3.79
2023-03-12T17:57:35.064Z,3.82
2023-03-12T18:00:41.714Z,3.86
2023-03-12T18:03:51.306Z,3.68
2023-03-12T18:06:57.886Z,4.15
2023-03-12T18:10:06.018Z,3.81
2023-03-12T18:13:12.576Z,3.94
2023-03-12T18:16:19.651Z,3.65
2023-03-12T18:19:29.459Z,3.29
2023-03-12T18:22:35.843Z,3.65
2023-03-12T18:25:42.292Z,3.91
2023-03-12T18:28:50.606Z,3.50
2023-03-12T18:31:57.139Z,3.37
2023-03-12T18:35:06.891Z,3.29
2023-03-12T18:38:13.483Z,3.29
2023-03-12T18:41:19.894Z,3.50
2023-03-12T18:44:26.402Z,3.42
2023-03-12T18:47:35.047Z,3.50
2023-03-12T18:50:42.795Z,3.39
2023-03-12T18:53:49.115Z,3.06
2023-03-12T18:56:55.243Z,3.15
2023-03-12T19:00:01.682Z,3.43
2023-03-12T19:03:08.082Z,3.37
2023-03-12T19:06:17.866Z,3.01
2023-03-12T19:09:24.394Z,3.27
2023-03-12T19:12:36.546Z,3.28
2023-03-12T19:15:45.924Z,2.79
2023-03-12T19:18:52.583Z,2.77
2023-03-12T19:22:00.298Z,2.79
2023-03-12T19:25:07.913Z,2.49
2023-03-12T19:28:14.472Z,2.22
2023-03-12T19:31:21.214Z,2.60
2023-03-12T19:34:27.596Z,2.55
2023-03-12T19:37:35.389Z,2.77
2023-03-12T19:40:41.738Z,2.45
2023-03-12T19:43:48.459Z,2.71
2023-03-12T19:46:54.701Z,2.78
2023-03-12T19:50:01.087Z,2.30
2023-03-12T19:53:10.412Z,2.32
2023-03-12T19:56:18.551Z,1.52
2023-03-12T19:59:25.245Z,1.48
2023-03-12T20:02:31.831Z,1.69
2023-03-12T20:05:38.401Z,1.63
2023-03-12T20:08:46.084Z,1.24
2023-03-12T20:11:52.295Z,1.49
2023-03-12T20:14:58.871Z,1.52
2023-03-12T20:18:05.646Z,1.36
2023-03-12T20:21:12.400Z,1.14
2023-03-12T20:24:20.600Z,1.40
2023-03-12T20:27:27.654Z,1.01
2023-03-12T20:30:34.035Z,0.84
2023-03-12T20:33:40.661Z,1.32
2023-03-12T20:36:47.070Z,1.25
2023-03-12T20:39:54.881Z,1.74
2023-03-12T20:43:04.925Z,1.04
2023-03-12T20:46:12.470Z,1.28
2023-03-12T20:49:19.020Z,1.55
2023-03-12T20:52:25.306Z,1.18
2023-03-12T20:55:32.928Z,1.24
2023-03-12T20:58:40.150Z,1.47
2023-03-12T21:01:46.878Z,1.40
2023-03-12T21:04:54.089Z,1.32
2023-03-12T21:08:00.768Z,1.33
2023-03-12T21:11:09.696Z,1.47
2023-03-12T21:14:15.974Z,1.45
2023-03-12T21:17:23.215Z,1.55
2023-03-12T21:20:30.283Z,1.33
2023-03-12T21:23:38.026Z,1.60
2023-03-12T21:26:46.230Z,0.92
2023-03-12T21:29:53.630Z,0.15
2023-03-12T21:33:00.012Z,0.65
2023-03-12T21:36:07.811Z,0.10
2023-03-12T21:39:14.328Z,0.15
2023-03-12T21:42:22.321Z,0.41
2023-03-12T21:45:28.503Z,0.35
2023-03-12T21:48:35.249Z,-0.43
2023-03-12T21:51:41.687Z,-0.47
2023-03-12T21:54:48.121Z,-0.50
2023-03-12T21:57:55.752Z,-0.24
2023-03-12T22:01:07.696Z,-0.54
2023-03-12T22:04:14.192Z,-0.43
2023-03-12T22:07:20.677Z,0.14
2023-03-12T22:10:26.997Z,0.47
2023-03-12T22:13:35.375Z,0.79
2023-03-12T22:16:41.940Z,0.16
2023-03-12T22:19:48.397Z,-0.19
2023-03-12T22:22:55.152Z,-0.59
2023-03-12T22:26:02.145Z,0.21
2023-03-12T22:29:10.687Z,0.38
2023-03-12T22:32:17.284Z,0.30
2023-03-12T22:35:25.996Z,-0.10
2023-03-12T22:38:32.607Z,-0.54
2023-03-12T22:41:38.923Z,-0.89
2023-03-12T22:44:46.459Z,-1.16
2023-03-12T22:47:52.903Z,-0.64
2023-03-12T22:50:59.113Z,-1.06
2023-03-12T22:54:05.707Z,-1.10
2023-03-12T22:57:12.214Z,-1.06
2023-03-12T23:00:23.250Z,-0.73
2023-03-12T23:03:30.247Z,-0.31
2023-03-12T23:06:36.682Z,-0.25
2023-03-12T23:09:42.918Z,-0.64
2023-03-12T23:12:49.168Z,-0.90
2023-03-12T23:15:56.786Z,-0.71
2023-03-12T23:19:03.300Z,-0.89
2023-03-12T23:22:09.181Z,-1.05
2023-03-12T23:25:15.194Z,-0.76
2023-03-12T23:28:21.610Z,-0.52
2023-03-12T23:31:30.556Z,-1.17
2023-03-12T23:34:36.710Z,-0.73
2023-03-12T23:37:43.071Z,-0.25
2023-03-12T23:40:49.264Z,-0.05
2023-03-12T23:43:55.706Z,0.08
2023-03-12T23:47:03.496Z,-0.06
2023-03-12T23:50:11.670Z,-0.23
2023-03-12T23:53:18.339Z,0.22
2023-03-12T23:56:27.177Z,-0.16
2023-03-12T23:59:33.704Z,0.00
